Time;durP1;ratioP1;P1;durP2;ratioP2;P2;SDS_P1;SDS_P2;PMS_P1;PMS_P2;Temp;Humidity;BMP_temperature;BMP_pressure;BME280_temperature;BME280_humidity;BME280_pressure;Samples;Min_cycle;Max_cycle;Signal;HPM_P1;HPM_P2
2024/03/18 12:28:50;;;;;;;11.50;5.20;;;;;;;4.36;67.17;99185.64;264976;1298;545899;-92
2024/03/18 12:35:03;;;;;;;10.90;6.00;;;;;;;4.28;66.72;99190.95;271775;1276;22343;-92
2024/03/18 12:41:23;;;;;;;14.60;6.70;;;;;;;4.10;67.00;99189.35;268935;1259;5409455;-91
2024/03/18 12:47:34;;;;;;;8.90;6.20;;;;;;;3.96;66.95;99188.48;271672;1269;23246;-92
2024/03/18 12:54:18;;;;;;;;;;;;;;;;;;;;;
2024/03/18 13:00:38;;;;;;;18.30;7.20;;;;;;;3.72;67.37;99186.10;271558;1269;22400;-92
2024/03/18 13:06:45;;;;;;;10.20;5.90;;;;;;;3.75;67.48;99184.98;272936;1269;22640;-92
2024/03/18 13:12:48;;;;;;;10.40;6.00;;;;;;;3.82;67.22;99184.96;270715;1258;23966;-91
2024/03/18 13:19:11;;;;;;;9.50;5.10;;;;;;;3.83;66.62;99184.67;271489;1269;24041;-92
2024/03/18 13:25:26;;;;;;;10.50;6.20;;;;;;;3.73;66.71;99182.75;270445;1264;22406;-92
2024/03/18 13:31:33;;;;;;;17.20;7.50;;;;;;;3.73;67.07;99183.84;271215;1269;22256;-92
2024/03/18 13:37:36;;;;;;;12.80;7.30;;;;;;;3.61;66.95;99187.57;272848;1269;23015;-93
2024/03/18 13:43:44;;;;;;;10.70;7.10;;;;;;;3.64;66.84;99189.70;272718;1269;22515;-92
2024/03/18 13:50:07;;;;;;;11.80;7.30;;;;;;;3.76;66.88;99190.00;272900;1269;23335;-93
2024/03/18 13:56:28;;;;;;;12.50;7.70;;;;;;;3.81;66.84;99189.71;272822;1269;22409;-92
2024/03/18 14:02:41;;;;;;;13.00;6.80;;;;;;;3.94;67.02;99185.67;271874;1269;22336;-92
2024/03/18 14:08:55;;;;;;;10.80;6.50;;;;;;;4.13;67.02;99185.29;272565;1265;22618;-91
2024/03/18 14:15:40;;;;;;;10.70;6.40;;;;;;;4.18;66.94;99180.66;272608;1269;22440;-91
2024/03/18 14:22:15;;;;;;;10.90;7.50;;;;;;;4.13;66.63;99178.62;272885;1269;22386;-92
2024/03/18 14:28:20;;;;;;;11.50;7.10;;;;;;;4.07;66.84;99176.98;272679;1269;23034;-92
2024/03/18 14:34:25;;;;;;;12.00;7.80;;;;;;;4.13;67.24;99177.38;272633;1269;22576;-93
2024/03/18 14:40:30;;;;;;;17.00;8.10;;;;;;;4.34;67.74;99171.54;264189;1269;10001954;-91
2024/03/18 14:46:48;;;;;;;7.70;5.20;;;;;;;4.64;67.22;99168.81;271053;1266;22766;-92
2024/03/18 14:53:00;;;;;;;7.60;5.60;;;;;;;4.73;66.11;99167.69;271172;1266;22399;-91
2024/03/18 14:59:21;;;;;;;8.10;6.00;;;;;;;4.60;65.31;99166.58;273333;1266;22337;-93
2024/03/18 15:05:59;;;;;;;;;;;;;;;;;;;;;
2024/03/18 15:12:39;;;;;;;4.90;3.50;;;;;;;4.64;66.37;99172.71;272750;1266;22317;-93
2024/03/18 15:19:01;;;;;;;7.00;5.20;;;;;;;4.67;65.77;99177.82;273325;1266;23334;-93
2024/03/18 15:27:53;;;;;;;10.00;5.80;;;;;;;4.30;65.70;99179.59;273401;1266;22450;-91
2024/03/18 15:31:56;;;;;;;15.00;7.00;;;;;;;4.00;66.13;99182.84;272922;1266;23061;-92
2024/03/18 15:38:36;;;;;;;10.60;6.50;;;;;;;3.99;66.16;99184.47;273249;1266;22431;-92
2024/03/18 15:45:17;;;;;;;;;;;;;;;;;;;;;
2024/03/18 15:51:38;;;;;;;12.20;7.20;;;;;;;3.69;67.14;99198.50;271284;1266;23535;-92
2024/03/18 15:57:56;;;;;;;;;;;;;;;;;;;;;
2024/03/18 16:04:22;;;;;;;10.90;7.80;;;;;;;3.35;69.46;99207.85;273250;1266;22528;-92
2024/03/18 16:10:39;;;;;;;18.20;7.80;;;;;;;3.23;69.86;99214.27;273225;1263;22421;-91
2024/03/18 16:17:06;;;;;;;;;;;;;;;;;;;;;
2024/03/18 16:23:41;;;;;;;14.40;9.70;;;;;;;3.11;70.38;99212.38;272352;1266;22600;-91
2024/03/18 16:29:48;;;;;;;16.90;9.80;;;;;;;2.98;70.60;99216.27;271712;1266;22488;-92
2024/03/18 16:36:24;;;;;;;16.90;7.50;;;;;;;2.89;71.29;99222.30;272266;1266;27570;-92
2024/03/18 16:42:45;;;;;;;15.20;8.70;;;;;;;2.87;71.86;99224.59;271221;1258;22529;-92
2024/03/18 16:49:00;;;;;;;12.80;9.10;;;;;;;2.83;72.54;99220.84;270887;1268;22551;-91
2024/03/18 16:55:27;;;;;;;;;;;;;;;;;;;;;
2024/03/18 17:01:48;;;;;;;;;;;;;;;;;;;;;
2024/03/18 17:08:04;;;;;;;20.80;11.00;;;;;;;2.83;73.91;99230.98;272335;1269;22510;-91
2024/03/18 17:14:28;;;;;;;;;;;;;;;;;;;;;
2024/03/18 17:20:36;;;;;;;17.50;10.50;;;;;;;2.80;74.06;99237.15;273069;1268;23164;-92
2024/03/18 17:27:17;;;;;;;;;;;;;;;;;;;;;
2024/03/18 17:33:48;;;;;;;23.90;13.90;;;;;;;2.61;74.07;99247.09;272558;1269;23245;-91
2024/03/18 17:40:00;;;;;;;24.20;14.80;;;;;;;2.54;75.02;99253.95;270974;1267;22599;-92
2024/03/18 17:46:20;;;;;;;26.90;14.30;;;;;;;2.46;75.75;99256.14;271740;1268;22397;-92
2024/03/18 17:52:30;;;;;;;28.10;14.80;;;;;;;2.42;76.78;99260.02;272924;1269;22394;-91
2024/03/18 17:58:45;;;;;;;24.20;14.60;;;;;;;2.41;77.38;99268.39;272960;1269;22466;-91
2024/03/18 18:05:01;;;;;;;25.20;14.00;;;;;;;2.39;77.81;99270.30;273326;1269;22265;-92
2024/03/18 18:11:11;;;;;;;32.00;14.20;;;;;;;2.40;78.36;99272.91;272983;1268;23387;-91
2024/03/18 18:17:39;;;;;;;;;;;;;;;;;;;;;
2024/03/18 18:24:06;;;;;;;39.80;18.50;;;;;;;2.40;79.15;99279.92;273058;1268;23007;-91
2024/03/18 18:30:56;;;;;;;;;;;;;;;;;;;;;
2024/03/18 18:37:29;;;;;;;40.00;19.80;;;;;;;2.41;79.99;99282.31;271103;1259;22553;-91
2024/03/18 18:43:34;;;;;;;31.60;17.30;;;;;;;2.37;80.33;99288.21;271713;1269;22269;-91
2024/03/18 18:49:49;;;;;;;33.70;18.00;;;;;;;2.33;80.69;99289.11;272987;1269;22346;-92
2024/03/18 18:56:25;;;;;;;31.40;18.00;;;;;;;2.29;80.69;99292.30;272118;1268;22308;-91
2024/03/18 19:02:30;;;;;;;31.30;18.00;;;;;;;2.30;80.90;99290.80;271724;1269;23254;-91
2024/03/18 19:08:33;;;;;;;35.70;19.50;;;;;;;2.33;81.40;99294.39;271027;1269;22368;-91
2024/03/18 19:14:39;;;;;;;34.00;19.00;;;;;;;2.35;81.70;99297.21;273335;1269;22274;-91
2024/03/18 19:21:00;;;;;;;39.70;19.90;;;;;;;2.37;81.89;99291.42;272846;1268;22695;-92
2024/03/18 19:27:10;;;;;;;;;;;;;;;2.38;82.24;99293.27;273231;1269;23416;-91
2024/03/18 19:33:13;;;;;;;40.10;18.90;;;;;;;2.38;82.50;99300.73;273005;1269;23173;-91
2024/03/18 19:39:26;;;;;;;39.50;22.30;;;;;;;2.35;82.86;99299.75;272848;1269;22550;-91
2024/03/18 19:45:38;;;;;;;43.70;24.00;;;;;;;2.34;83.09;99303.18;273027;1269;22298;-91
2024/03/18 19:51:45;;;;;;;49.50;25.70;;;;;;;2.30;83.41;99303.02;273442;1269;22242;-91
2024/03/18 19:57:52;;;;;;;47.50;25.60;;;;;;;2.29;83.80;99305.09;273083;1269;22360;-91
2024/03/18 20:04:01;;;;;;;45.40;23.30;;;;;;;2.28;84.23;99305.22;273502;1265;23526;-91
2024/03/18 20:10:15;;;;;;;47.50;24.40;;;;;;;2.29;84.37;99310.94;273164;1269;22385;-91
2024/03/18 20:16:17;;;;;;;55.80;26.20;;;;;;;2.29;84.66;99313.13;272943;1269;22320;-90
2024/03/18 20:22:29;;;;;;;56.30;27.90;;;;;;;2.28;85.10;99314.91;273064;1269;22502;-91
2024/03/18 20:28:37;;;;;;;49.10;26.70;;;;;;;2.27;85.46;99314.05;273137;1267;22378;-91
2024/03/18 20:34:50;;;;;;;55.70;28.40;;;;;;;2.28;85.64;99314.45;273129;1269;22637;-90
2024/03/18 20:41:26;;;;;;;68.00;30.40;;;;;;;2.25;85.90;99315.20;273168;1269;22427;-90
2024/03/18 20:47:28;;;;;;;58.40;29.30;;;;;;;2.25;86.33;99318.72;272886;1269;22445;-91
2024/03/18 20:53:44;;;;;;;72.50;32.40;;;;;;;2.25;86.70;99321.36;271318;1269;22999;-91
2024/03/18 20:59:50;;;;;;;57.20;29.00;;;;;;;2.23;87.10;99318.85;272730;1269;22386;-91
2024/03/18 21:05:52;;;;;;;54.30;26.50;;;;;;;2.23;87.35;99315.60;273175;1269;22657;-91
2024/03/18 21:12:06;;;;;;;54.50;27.90;;;;;;;2.24;87.47;99318.59;273508;1269;23484;-92
2024/03/18 21:18:23;;;;;;;49.80;25.20;;;;;;;2.21;87.50;99318.14;273187;1269;22448;-91
2024/03/18 21:24:34;;;;;;;28.70;16.10;;;;;;;2.21;87.83;99323.85;273208;1268;22243;-90
2024/03/18 21:31:15;;;;;;;47.80;24.20;;;;;;;2.20;87.85;99323.40;272887;1269;22351;-91
2024/03/18 21:37:17;;;;;;;45.00;22.60;;;;;;;2.17;87.95;99326.78;271796;1273;22410;-91
2024/03/18 21:43:40;;;;;;;46.00;22.20;;;;;;;2.09;87.25;99323.86;272559;1269;23490;-90
2024/03/18 21:49:50;;;;;;;48.50;21.20;;;;;;;2.00;86.86;99325.57;273305;1269;22227;-91
2024/03/18 21:56:05;;;;;;;45.40;21.60;;;;;;;1.97;87.00;99328.42;271611;1269;22367;-90
2024/03/18 22:02:13;;;;;;;30.30;15.80;;;;;;;1.93;87.26;99319.77;273217;1269;22258;-91
2024/03/18 22:08:20;;;;;;;38.30;16.80;;;;;;;1.91;87.25;99317.11;273585;1270;22387;-91
2024/03/18 22:14:22;;;;;;;25.00;13.90;;;;;;;1.86;87.47;99322.16;273647;1271;22230;-91
2024/03/18 22:20:27;;;;;;;22.30;12.20;;;;;;;1.84;87.85;99327.78;273082;1269;22286;-91
2024/03/18 22:26:32;;;;;;;21.90;12.20;;;;;;;1.83;87.96;99332.01;272917;1269;22362;-91
2024/03/18 22:32:48;;;;;;;23.70;12.20;;;;;;;1.85;88.19;99327.21;273592;1269;22254;-91
2024/03/18 22:38:57;;;;;;;26.30;14.00;;;;;;;1.87;88.56;99328.45;273203;1269;23124;-91
2024/03/18 22:45:03;;;;;;;22.10;12.70;;;;;;;1.88;88.98;99327.45;273284;1269;22470;-90
2024/03/18 22:51:15;;;;;;;;;;;;;;;1.89;88.98;99324.19;273412;1269;22463;-90
2024/03/18 22:57:27;;;;;;;42.10;17.10;;;;;;;1.89;88.72;99326.73;273344;1269;22837;-91
2024/03/18 23:03:34;;;;;;;33.60;15.80;;;;;;;1.86;88.80;99329.18;273272;1269;23497;-91
2024/03/18 23:10:05;;;;;;;;;;;;;;;;;;;;;
2024/03/18 23:17:43;;;;;;;34.20;14.70;;;;;;;1.84;89.03;99337.34;272354;1257;23734;-92
2024/03/18 23:24:50;;;;;;;;;;;;;;;;;;;;;
2024/03/18 23:32:04;;;;;;;27.30;14.30;;;;;;;1.82;89.34;99339.71;272600;1269;23199;-91
2024/03/18 23:38:46;;;;;;;;;;;;;;;;;;;;;
2024/03/18 23:46:06;;;;;;;22.80;12.70;;;;;;;1.85;89.95;99343.80;273596;1270;22407;-90
2024/03/18 23:53:35;;;;;;;21.60;12.80;;;;;;;1.91;90.73;99342.05;271588;1273;22352;-92
